createdAt,value
2018-06-13T00:00:16.707Z,49.90
2018-06-13T00:02:45.676Z,49.34
2018-06-13T00:05:14.765Z,48.43
2018-06-13T00:07:43.822Z,49.23
2018-06-13T00:10:12.785Z,49.64
2018-06-13T00:12:41.836Z,49.98
2018-06-13T00:15:10.885Z,51.01
2018-06-13T00:17:39.875Z,51.24
2018-06-13T00:20:08.843Z,50.53
2018-06-13T00:22:37.840Z,49.55
2018-06-13T00:25:08.095Z,50.53
2018-06-13T00:27:37.120Z,50.28
2018-06-13T00:30:06.152Z,50.59
2018-06-13T00:32:35.136Z,49.92
2018-06-13T00:35:04.244Z,50.15
2018-06-13T00:37:34.099Z,50.22
2018-06-13T00:40:03.029Z,50.08
2018-06-13T00:42:32.084Z,50.07
2018-06-13T00:45:01.856Z,50.60
2018-06-13T00:47:32.216Z,50.57
2018-06-13T00:50:01.806Z,50.00
2018-06-13T00:52:31.334Z,50.77
2018-06-13T00:55:00.380Z,50.60
2018-06-13T00:57:29.325Z,52.12
2018-06-13T00:59:58.263Z,53.56
2018-06-13T01:02:27.342Z,54.49
2018-06-13T01:04:57.254Z,54.83
2018-06-13T01:07:26.324Z,55.17
2018-06-13T01:09:55.321Z,54.94
2018-06-13T01:12:24.267Z,54.19
2018-06-13T01:14:53.171Z,54.49
2018-06-13T01:17:23.214Z,55.31
2018-06-13T01:19:52.871Z,54.04
2018-06-13T01:22:22.546Z,53.25
2018-06-13T01:24:51.502Z,54.14
2018-06-13T01:27:20.486Z,54.87
2018-06-13T01:29:49.464Z,54.46
2018-06-13T01:32:18.462Z,54.95
2018-06-13T01:34:47.451Z,55.14
2018-06-13T01:37:16.408Z,55.35
2018-06-13T01:39:45.493Z,55.16
2018-06-13T01:42:14.404Z,54.99
2018-06-13T01:44:43.396Z,54.55
2018-06-13T01:47:12.314Z,55.37
2018-06-13T01:49:42.319Z,55.31
2018-06-13T01:52:11.449Z,55.58
2018-06-13T01:54:40.880Z,55.28
2018-06-13T01:57:09.895Z,55.46
2018-06-13T01:59:38.967Z,56.25
2018-06-13T02:02:08.229Z,56.39
2018-06-13T02:04:37.891Z,56.62
2018-06-13T02:07:06.924Z,56.87
2018-06-13T02:09:35.896Z,56.52
2018-06-13T02:12:05.515Z,55.95
2018-06-13T02:14:34.522Z,56.20
2018-06-13T02:17:03.548Z,57.34
2018-06-13T02:19:32.514Z,56.89
2018-06-13T02:22:01.537Z,57.69
2018-06-13T02:24:31.248Z,57.94
2018-06-13T02:27:00.169Z,58.35
2018-06-13T02:29:30.511Z,58.27
2018-06-13T02:31:59.418Z,58.66
2018-06-13T02:34:28.527Z,59.03
2018-06-13T02:36:57.492Z,59.15
2018-06-13T02:39:27.148Z,58.54
2018-06-13T02:41:56.143Z,58.65
2018-06-13T02:44:25.152Z,59.40
2018-06-13T02:46:54.088Z,58.97
2018-06-13T02:49:23.070Z,59.06
2018-06-13T02:51:52.039Z,59.05
2018-06-13T02:54:20.958Z,59.36
2018-06-13T02:56:50.696Z,59.40
2018-06-13T02:59:19.629Z,59.66
2018-06-13T03:01:48.536Z,60.18
2018-06-13T03:04:17.597Z,60.72
2018-06-13T03:06:46.507Z,60.94
2018-06-13T03:09:16.856Z,60.40
2018-06-13T03:11:45.803Z,61.18
2018-06-13T03:14:14.802Z,60.26
2018-06-13T03:16:44.120Z,60.97
2018-06-13T03:19:13.748Z,61.03
2018-06-13T03:21:42.651Z,62.00
2018-06-13T03:24:12.141Z,62.21
2018-06-13T03:26:41.168Z,62.13
2018-06-13T03:29:10.081Z,62.38
2018-06-13T03:31:39.777Z,62.91
2018-06-13T03:34:08.741Z,62.83
2018-06-13T03:36:37.737Z,61.90
2018-06-13T03:39:09.022Z,62.78
2018-06-13T03:41:37.943Z,63.05
2018-06-13T03:44:06.883Z,63.72
2018-06-13T03:46:35.908Z,64.09
2018-06-13T03:49:04.851Z,64.26
2018-06-13T03:51:33.858Z,64.35
2018-06-13T03:54:02.785Z,63.98
2018-06-13T03:56:32.644Z,64.32
2018-06-13T03:59:01.541Z,63.79
2018-06-13T04:01:31.064Z,62.99
2018-06-13T04:03:59.983Z,63.76
2018-06-13T04:06:28.992Z,63.23
2018-06-13T04:08:58.178Z,60.04
2018-06-13T04:11:27.132Z,60.84
2018-06-13T04:13:56.119Z,59.93
2018-06-13T04:16:25.290Z,61.92
2018-06-13T04:18:55.260Z,60.11
2018-06-13T04:21:24.236Z,57.19
2018-06-13T04:23:53.248Z,56.48
2018-06-13T04:26:23.012Z,53.18
2018-06-13T04:28:52.521Z,54.80
2018-06-13T04:31:21.516Z,55.87
2018-06-13T04:33:50.442Z,56.57
2018-06-13T04:36:19.566Z,57.12
2018-06-13T04:38:49.065Z,57.81
2018-06-13T04:41:18.653Z,59.10
2018-06-13T04:43:47.785Z,58.89
2018-06-13T04:46:16.751Z,57.51
2018-06-13T04:48:46.332Z,54.57
2018-06-13T04:51:15.492Z,54.10
2018-06-13T04:53:44.488Z,53.63
2018-06-13T04:56:14.813Z,53.87
2018-06-13T04:58:43.791Z,57.79
2018-06-13T05:01:12.683Z,53.27
2018-06-13T05:03:41.689Z,51.67
2018-06-13T05:06:10.725Z,51.39
2018-06-13T05:08:40.300Z,52.19
2018-06-13T05:11:09.286Z,51.38
2018-06-13T05:13:38.995Z,51.43
2018-06-13T05:16:07.947Z,50.78
2018-06-13T05:18:39.043Z,49.11
2018-06-13T05:21:08.660Z,49.90
2018-06-13T05:23:37.583Z,48.96
2018-06-13T05:26:07.004Z,46.80
2018-06-13T05:28:36.042Z,47.75
2018-06-13T05:31:04.996Z,42.09
2018-06-13T05:33:34.045Z,43.52
2018-06-13T05:36:03.034Z,45.46
2018-06-13T05:38:32.847Z,44.91
2018-06-13T05:41:02.717Z,44.88
2018-06-13T05:43:31.658Z,42.32
2018-06-13T05:46:00.551Z,45.16
2018-06-13T05:48:29.514Z,43.74
2018-06-13T05:50:58.529Z,42.58
2018-06-13T05:53:27.420Z,43.65
2018-06-13T05:55:56.539Z,44.50
2018-06-13T05:58:25.508Z,44.66
2018-06-13T06:00:54.473Z,42.25
2018-06-13T06:03:23.485Z,40.69
2018-06-13T06:05:52.495Z,44.63
2018-06-13T06:08:23.643Z,41.26
2018-06-13T06:10:52.540Z,39.18
2018-06-13T06:13:21.517Z,40.51
2018-06-13T06:15:50.448Z,40.94
2018-06-13T06:18:19.449Z,41.92
2018-06-13T06:20:48.420Z,42.15
2018-06-13T06:23:17.848Z,38.67
2018-06-13T06:25:46.794Z,37.71
2018-06-13T06:28:15.776Z,40.20
2018-06-13T06:30:44.835Z,37.33
2018-06-13T06:33:13.843Z,38.39
2018-06-13T06:35:43.245Z,43.81
2018-06-13T06:38:14.122Z,39.42
2018-06-13T06:40:43.077Z,38.64
2018-06-13T06:43:12.132Z,36.22
2018-06-13T06:45:41.749Z,41.60
2018-06-13T06:48:11.441Z,40.22
2018-06-13T06:50:40.455Z,38.32
2018-06-13T06:53:09.477Z,37.44
2018-06-13T06:55:38.509Z,38.72
2018-06-13T06:58:07.421Z,35.19
2018-06-13T07:00:36.351Z,35.11
2018-06-13T07:03:05.285Z,36.19
2018-06-13T07:05:34.762Z,37.74
2018-06-13T07:08:03.863Z,41.38
2018-06-13T07:10:32.891Z,42.69
2018-06-13T07:13:01.819Z,36.59
2018-06-13T07:15:30.905Z,36.01
2018-06-13T07:17:59.937Z,37.45
2018-06-13T07:20:29.566Z,38.15
2018-06-13T07:22:58.633Z,37.69
2018-06-13T07:25:27.717Z,37.82
2018-06-13T07:27:56.615Z,34.97
2018-06-13T07:30:25.647Z,34.86
2018-06-13T07:32:54.578Z,37.97
2018-06-13T07:35:23.530Z,38.58
2018-06-13T07:37:52.512Z,34.86
2018-06-13T07:40:21.458Z,34.21
2018-06-13T07:42:50.437Z,35.25
2018-06-13T07:45:19.612Z,35.53
2018-06-13T07:47:48.638Z,35.43
2018-06-13T07:50:18.320Z,34.30
2018-06-13T07:52:47.379Z,38.97
2018-06-13T07:55:16.391Z,36.14
2018-06-13T07:57:45.388Z,40.93
2018-06-13T08:00:15.214Z,34.75
2018-06-13T08:02:44.131Z,34.88
2018-06-13T08:05:13.156Z,38.04
2018-06-13T08:07:42.147Z,36.06
2018-06-13T08:10:12.065Z,37.11
2018-06-13T08:12:41.006Z,37.19
2018-06-13T08:15:10.469Z,38.25
2018-06-13T08:17:39.413Z,35.20
2018-06-13T08:20:08.443Z,36.62
2018-06-13T08:22:37.563Z,35.99
2018-06-13T08:25:07.484Z,37.98
2018-06-13T08:27:42.728Z,34.57
2018-06-13T08:30:11.664Z,35.87
2018-06-13T08:32:40.664Z,36.77
2018-06-13T08:35:10.187Z,35.14
2018-06-13T08:37:39.285Z,35.96
2018-06-13T08:40:08.467Z,34.09
2018-06-13T08:42:37.597Z,34.98
2018-06-13T08:45:07.532Z,37.55
2018-06-13T08:47:36.785Z,33.67
2018-06-13T08:50:06.736Z,37.63
2018-06-13T08:52:35.644Z,35.14
2018-06-13T08:55:04.608Z,34.65
2018-06-13T08:57:33.698Z,35.79
2018-06-13T09:00:03.371Z,32.70
2018-06-13T09:02:32.373Z,33.49
2018-06-13T09:05:01.372Z,35.93
2018-06-13T09:07:31.094Z,36.44
2018-06-13T09:10:00.108Z,34.51
2018-06-13T09:12:29.119Z,36.12
2018-06-13T09:14:58.094Z,33.95
2018-06-13T09:17:27.812Z,35.16
2018-06-13T09:19:56.788Z,34.92
2018-06-13T09:22:26.385Z,33.38
2018-06-13T09:24:55.316Z,32.17
2018-06-13T09:27:24.384Z,33.70
2018-06-13T09:29:53.325Z,33.02
2018-06-13T09:32:22.234Z,33.85
2018-06-13T09:34:51.848Z,32.72
2018-06-13T09:37:20.920Z,32.25
2018-06-13T09:39:49.892Z,30.98
2018-06-13T09:42:19.637Z,34.04
2018-06-13T09:44:48.636Z,32.02
2018-06-13T09:47:23.453Z,34.65
2018-06-13T09:49:46.674Z,32.54
2018-06-13T09:52:15.773Z,33.64
2018-06-13T09:54:44.717Z,35.94
2018-06-13T09:57:14.328Z,33.01
2018-06-13T09:59:48.280Z,31.58
2018-06-13T10:02:19.072Z,33.18
2018-06-13T10:04:49.232Z,31.93
2018-06-13T10:07:18.797Z,34.89
2018-06-13T10:09:47.860Z,34.07
2018-06-13T10:12:17.260Z,34.50
2018-06-13T10:14:46.271Z,33.12
2018-06-13T10:17:15.440Z,31.84
2018-06-13T10:19:44.346Z,33.54
2018-06-13T10:22:13.457Z,34.25
2018-06-13T10:24:42.707Z,30.40
2018-06-13T10:27:17.455Z,30.44
2018-06-13T10:29:46.445Z,31.99
2018-06-13T10:32:15.448Z,32.11
2018-06-13T10:34:44.410Z,30.41
2018-06-13T10:37:14.403Z,32.56
2018-06-13T10:39:43.370Z,31.37
2018-06-13T10:42:12.919Z,31.30
2018-06-13T10:44:42.012Z,30.24
2018-06-13T10:47:10.949Z,28.54
2018-06-13T10:49:42.256Z,33.04
2018-06-13T10:52:12.514Z,32.24
2018-06-13T10:54:41.541Z,31.46
2018-06-13T10:57:10.556Z,28.64
2018-06-13T10:59:39.468Z,28.98
2018-06-13T11:02:08.465Z,28.98
2018-06-13T11:04:38.313Z,30.73
2018-06-13T11:07:07.294Z,30.78
2018-06-13T11:09:36.288Z,27.76
2018-06-13T11:12:05.239Z,29.23
2018-06-13T11:14:34.232Z,30.78
2018-06-13T11:17:03.217Z,28.20
2018-06-13T11:19:32.274Z,31.62
2018-06-13T11:22:01.330Z,29.46
2018-06-13T11:24:30.811Z,29.15
2018-06-13T11:26:59.803Z,31.17
2018-06-13T11:29:29.205Z,30.33
2018-06-13T11:31:58.224Z,31.02
2018-06-13T11:34:27.180Z,30.79
2018-06-13T11:36:56.896Z,30.43
2018-06-13T11:39:25.849Z,30.73
2018-06-13T11:41:54.941Z,28.46
2018-06-13T11:44:27.364Z,31.56
2018-06-13T11:46:56.621Z,29.44
2018-06-13T11:49:25.531Z,29.43
2018-06-13T11:51:54.475Z,30.90
2018-06-13T11:54:24.174Z,29.81
2018-06-13T11:56:53.193Z,29.88
2018-06-13T11:59:22.118Z,29.06
2018-06-13T12:01:51.838Z,28.78
2018-06-13T12:04:20.888Z,29.64
2018-06-13T12:06:50.708Z,27.67
2018-06-13T12:09:19.675Z,29.93
2018-06-13T12:11:48.617Z,28.95
2018-06-13T12:14:17.535Z,26.29
2018-06-13T12:16:46.593Z,29.54
2018-06-13T12:19:17.696Z,27.91
2018-06-13T12:21:46.777Z,28.18
2018-06-13T12:24:15.783Z,28.45
2018-06-13T12:26:44.787Z,28.79
2018-06-13T12:29:13.765Z,28.64
2018-06-13T12:31:42.742Z,27.21
2018-06-13T12:34:11.719Z,28.90
2018-06-13T12:36:40.766Z,30.40
2018-06-13T12:39:11.551Z,28.51
2018-06-13T12:41:40.534Z,28.70
2018-06-13T12:44:10.378Z,27.37
2018-06-13T12:46:39.318Z,27.71
2018-06-13T12:49:08.381Z,29.12
2018-06-13T12:51:37.459Z,27.29
2018-06-13T12:54:06.446Z,28.44
2018-06-13T12:56:35.531Z,29.35
2018-06-13T12:59:05.530Z,29.39
2018-06-13T13:01:34.521Z,27.32
2018-06-13T13:04:03.447Z,28.15
2018-06-13T13:06:33.189Z,30.71
2018-06-13T13:09:02.093Z,29.55
2018-06-13T13:11:31.957Z,29.09
2018-06-13T13:14:01.158Z,29.03
2018-06-13T13:16:30.124Z,30.83
2018-06-13T13:18:59.041Z,31.23
2018-06-13T13:21:28.888Z,27.25
2018-06-13T13:23:58.103Z,28.11
2018-06-13T13:26:27.047Z,29.33
2018-06-13T13:28:56.075Z,27.88
2018-06-13T13:31:24.961Z,32.05
2018-06-13T13:33:53.879Z,28.68
2018-06-13T13:36:22.989Z,28.34
2018-06-13T13:38:51.985Z,31.87
2018-06-13T13:41:20.956Z,28.80
2018-06-13T13:43:49.953Z,28.90
2018-06-13T13:46:18.977Z,28.92
2018-06-13T13:48:47.906Z,30.49
2018-06-13T13:51:17.495Z,28.68
2018-06-13T13:53:46.394Z,28.82
2018-06-13T13:56:15.331Z,28.29
2018-06-13T13:58:44.516Z,29.55
2018-06-13T14:01:14.368Z,29.42
2018-06-13T14:03:43.263Z,28.67
2018-06-13T14:06:12.297Z,29.17
2018-06-13T14:08:41.254Z,28.62
2018-06-13T14:11:10.388Z,28.43
2018-06-13T14:13:39.794Z,28.96
2018-06-13T14:16:09.392Z,29.98
2018-06-13T14:18:38.420Z,29.40
2018-06-13T14:21:07.447Z,31.63
2018-06-13T14:23:36.359Z,29.56
2018-06-13T14:26:05.421Z,29.45
2018-06-13T14:28:34.496Z,28.86
2018-06-13T14:31:03.493Z,28.95
2018-06-13T14:33:32.562Z,29.79
2018-06-13T14:36:01.554Z,30.25
2018-06-13T14:38:30.544Z,32.25
2018-06-13T14:40:59.521Z,28.55
2018-06-13T14:43:29.069Z,30.06
2018-06-13T14:45:58.040Z,28.89
2018-06-13T14:48:27.062Z,30.86
2018-06-13T14:50:56.146Z,30.54
2018-06-13T14:53:25.675Z,30.32
2018-06-13T14:55:59.740Z,31.60
2018-06-13T14:58:29.697Z,31.57
2018-06-13T15:00:58.793Z,30.87
2018-06-13T15:03:27.900Z,31.71
2018-06-13T15:05:57.456Z,29.43
2018-06-13T15:08:26.453Z,30.79
2018-06-13T15:10:55.528Z,31.94
2018-06-13T15:13:25.131Z,32.09
2018-06-13T15:15:54.335Z,32.07
2018-06-13T15:18:23.323Z,31.63
2018-06-13T15:20:52.886Z,32.21
2018-06-13T15:23:21.867Z,31.81
2018-06-13T15:25:50.974Z,33.38
2018-06-13T15:28:19.968Z,31.65
2018-06-13T15:30:48.981Z,32.37
2018-06-13T15:33:18.095Z,32.64
2018-06-13T15:35:47.950Z,32.48
2018-06-13T15:38:16.957Z,33.69
2018-06-13T15:40:46.451Z,32.74
2018-06-13T15:43:15.439Z,33.46
2018-06-13T15:45:44.372Z,33.42
2018-06-13T15:48:13.633Z,33.02
2018-06-13T15:50:42.655Z,34.06
2018-06-13T15:53:11.616Z,35.76
2018-06-13T15:55:40.638Z,35.86
2018-06-13T15:58:09.656Z,34.56
2018-06-13T16:00:38.677Z,34.23
2018-06-13T16:03:09.432Z,34.25
2018-06-13T16:05:38.527Z,35.06
2018-06-13T16:08:08.239Z,35.59
2018-06-13T16:10:37.987Z,36.40
2018-06-13T16:13:07.010Z,36.81
2018-06-13T16:15:36.064Z,36.52
2018-06-13T16:18:06.056Z,35.10
2018-06-13T16:20:35.919Z,36.92
2018-06-13T16:23:04.889Z,36.69
2018-06-13T16:25:33.831Z,35.85
2018-06-13T16:28:02.956Z,35.96
2018-06-13T16:30:31.952Z,34.88
2018-06-13T16:33:01.674Z,35.49
2018-06-13T16:35:30.754Z,38.20
2018-06-13T16:37:59.633Z,35.91
2018-06-13T16:40:28.589Z,35.69
2018-06-13T16:42:57.588Z,38.21
2018-06-13T16:45:26.821Z,37.97
2018-06-13T16:47:55.924Z,36.52
2018-06-13T16:50:35.704Z,36.87
2018-06-13T16:53:24.430Z,36.27
2018-06-13T16:55:55.353Z,36.14
2018-06-13T16:58:24.334Z,36.01
2018-06-13T17:00:53.685Z,37.52
2018-06-13T17:03:22.789Z,37.41
2018-06-13T17:05:51.674Z,37.91
2018-06-13T17:08:20.957Z,37.32
2018-06-13T17:10:50.756Z,37.10
2018-06-13T17:13:19.616Z,37.26
2018-06-13T17:15:48.537Z,40.96
2018-06-13T17:18:17.459Z,37.23
2018-06-13T17:20:46.420Z,38.65
2018-06-13T17:23:15.411Z,37.55
2018-06-13T17:25:44.342Z,37.97
2018-06-13T17:28:13.328Z,38.82
2018-06-13T17:30:42.339Z,39.52
2018-06-13T17:33:11.368Z,37.82
2018-06-13T17:35:40.313Z,39.23
2018-06-13T17:38:09.177Z,40.32
2018-06-13T17:40:38.383Z,39.73
2018-06-13T17:43:07.339Z,39.93
2018-06-13T17:45:36.336Z,40.35
2018-06-13T17:48:05.420Z,40.42
2018-06-13T17:50:35.089Z,40.31
2018-06-13T17:53:04.002Z,41.02
2018-06-13T17:55:33.150Z,40.10
2018-06-13T17:58:02.545Z,40.42
2018-06-13T18:00:31.622Z,40.69
2018-06-13T18:03:01.149Z,39.40
2018-06-13T18:05:30.247Z,40.60
2018-06-13T18:07:59.269Z,40.46
2018-06-13T18:10:28.463Z,40.97
2018-06-13T18:12:57.474Z,40.60
2018-06-13T18:15:26.474Z,41.61
2018-06-13T18:17:55.553Z,41.41
2018-06-13T18:20:24.437Z,42.08
2018-06-13T18:22:54.155Z,41.59
2018-06-13T18:25:23.213Z,41.30
2018-06-13T18:27:52.220Z,41.05
2018-06-13T18:30:21.153Z,42.08
2018-06-13T18:32:50.152Z,41.57
2018-06-13T18:35:19.171Z,41.11
2018-06-13T18:37:48.111Z,42.09
2018-06-13T18:40:17.184Z,41.78
2018-06-13T18:42:46.188Z,41.47
2018-06-13T18:45:15.169Z,41.72
2018-06-13T18:47:44.756Z,40.89
2018-06-13T18:50:13.710Z,41.19
2018-06-13T18:52:42.652Z,41.03
2018-06-13T18:55:11.835Z,40.46
2018-06-13T18:57:40.882Z,42.27
2018-06-13T19:00:09.920Z,44.33
2018-06-13T19:02:39.145Z,43.18
2018-06-13T19:05:08.090Z,42.53
2018-06-13T19:07:37.132Z,41.89
2018-06-13T19:10:06.112Z,42.55
2018-06-13T19:12:35.121Z,43.13
2018-06-13T19:15:04.278Z,42.22
2018-06-13T19:17:33.375Z,41.56
2018-06-13T19:20:02.335Z,41.55
2018-06-13T19:22:31.640Z,41.74
2018-06-13T19:25:00.600Z,41.79
2018-06-13T19:27:35.920Z,42.38
2018-06-13T19:30:05.198Z,41.93
2018-06-13T19:32:34.139Z,41.39
2018-06-13T19:35:03.091Z,42.64
2018-06-13T19:37:34.969Z,43.70
2018-06-13T19:40:04.098Z,42.75
2018-06-13T19:42:33.154Z,43.62
2018-06-13T19:45:02.152Z,43.81
2018-06-13T19:47:36.230Z,42.88
2018-06-13T19:50:05.297Z,44.21
2018-06-13T19:52:39.272Z,42.47
2018-06-13T19:55:13.423Z,43.12
2018-06-13T19:57:42.524Z,42.78
2018-06-13T20:00:11.554Z,41.82
2018-06-13T20:02:45.658Z,42.76
2018-06-13T20:05:19.788Z,42.69
2018-06-13T20:07:49.251Z,42.06
2018-06-13T20:10:18.181Z,41.97
2018-06-13T20:12:52.201Z,41.66
2018-06-13T20:15:26.265Z,42.46
2018-06-13T20:18:00.449Z,42.90
2018-06-13T20:20:29.475Z,42.64
2018-06-13T20:22:58.412Z,41.68
2018-06-13T20:25:32.709Z,41.36
2018-06-13T20:28:06.739Z,42.16
2018-06-13T20:30:40.656Z,43.33
2018-06-13T20:33:09.676Z,42.51
2018-06-13T20:35:38.725Z,43.91
2018-06-13T20:38:07.856Z,41.80
2018-06-13T20:40:36.867Z,41.56
2018-06-13T20:43:05.888Z,42.97
2018-06-13T20:45:34.915Z,42.11
2018-06-13T20:48:03.848Z,41.94
2018-06-13T20:50:33.460Z,42.82
2018-06-13T20:53:03.323Z,41.96
2018-06-13T20:55:32.436Z,41.69
2018-06-13T20:58:01.363Z,41.66
2018-06-13T21:00:30.352Z,41.37
2018-06-13T21:02:59.258Z,42.17
2018-06-13T21:05:28.189Z,41.18
2018-06-13T21:07:57.877Z,40.70
2018-06-13T21:10:26.926Z,41.45
2018-06-13T21:12:56.765Z,40.73
2018-06-13T21:15:25.996Z,42.15
2018-06-13T21:17:55.016Z,43.04
2018-06-13T21:20:24.091Z,43.18
2018-06-13T21:22:53.555Z,42.66
2018-06-13T21:25:23.105Z,42.31
2018-06-13T21:27:52.034Z,42.54
2018-06-13T21:30:21.149Z,42.78
2018-06-13T21:32:50.036Z,41.90
2018-06-13T21:35:18.963Z,42.69
2018-06-13T21:37:48.193Z,43.54
2018-06-13T21:40:17.261Z,43.44
2018-06-13T21:42:46.269Z,44.09
2018-06-13T21:45:15.328Z,43.83
2018-06-13T21:47:44.287Z,43.94
2018-06-13T21:50:13.275Z,43.21
2018-06-13T21:52:42.892Z,44.34
2018-06-13T21:55:11.952Z,43.04
2018-06-13T21:57:41.551Z,42.59
2018-06-13T22:00:12.041Z,42.35
2018-06-13T22:02:41.160Z,42.32
2018-06-13T22:05:10.131Z,43.26
2018-06-13T22:07:39.164Z,42.25
2018-06-13T22:10:08.219Z,42.91
2018-06-13T22:12:37.198Z,42.54
2018-06-13T22:15:10.392Z,42.27
2018-06-13T22:17:39.371Z,43.21
2018-06-13T22:20:09.086Z,43.84
2018-06-13T22:22:38.835Z,42.12
2018-06-13T22:25:07.798Z,42.89
2018-06-13T22:27:37.332Z,44.08
2018-06-13T22:30:06.453Z,43.74
2018-06-13T22:32:36.321Z,42.07
2018-06-13T22:35:05.760Z,42.67
2018-06-13T22:37:35.003Z,41.75
2018-06-13T22:40:04.103Z,41.76
2018-06-13T22:42:33.348Z,42.16
2018-06-13T22:45:02.386Z,42.28
2018-06-13T22:47:31.324Z,40.75
2018-06-13T22:50:00.273Z,42.70
2018-06-13T22:52:29.827Z,42.05
2018-06-13T22:54:59.705Z,41.77
2018-06-13T22:57:28.627Z,42.62
2018-06-13T22:59:57.661Z,42.40
2018-06-13T23:02:26.551Z,43.78
2018-06-13T23:04:55.507Z,42.87
2018-06-13T23:07:24.553Z,43.36
2018-06-13T23:09:53.534Z,43.61
2018-06-13T23:12:23.408Z,43.84
2018-06-13T23:14:52.578Z,43.57
2018-06-13T23:17:21.558Z,44.21
2018-06-13T23:19:50.580Z,45.13
2018-06-13T23:22:19.561Z,45.36
2018-06-13T23:24:48.527Z,46.54
2018-06-13T23:27:17.634Z,47.49
2018-06-13T23:29:46.752Z,45.81
2018-06-13T23:32:15.728Z,44.95
2018-06-13T23:34:44.663Z,46.73
2018-06-13T23:37:13.712Z,47.86
2018-06-13T23:39:42.702Z,49.24
2018-06-13T23:42:11.632Z,48.13
2018-06-13T23:44:41.258Z,48.03
2018-06-13T23:47:10.218Z,48.53
2018-06-13T23:49:39.112Z,48.18
2018-06-13T23:52:08.184Z,47.99
2018-06-13T23:54:37.771Z,49.98
2018-06-13T23:57:06.764Z,49.41
2018-06-13T23:59:35.836Z,50.23
